createdAt,value
2023-03-06T00:01:30.498Z,86.88
2023-03-06T00:03:56.900Z,86.33
2023-03-06T00:06:23.305Z,86.13
2023-03-06T00:08:49.737Z,86.51
2023-03-06T00:11:16.128Z,86.17
2023-03-06T00:13:42.527Z,85.79
2023-03-06T00:16:09.076Z,85.85
2023-03-06T00:18:35.729Z,85.41
2023-03-06T00:21:02.138Z,86.56
2023-03-06T00:23:28.580Z,86.73
2023-03-06T00:25:55.120Z,86.01
2023-03-06T00:28:21.568Z,86.86
2023-03-06T00:30:48.354Z,85.71
2023-03-06T00:33:14.828Z,86.28
2023-03-06T00:35:41.649Z,87.02
2023-03-06T00:38:08.528Z,86.29
2023-03-06T00:40:34.944Z,85.18
2023-03-06T00:43:01.361Z,85.21
2023-03-06T00:45:27.818Z,85.20
2023-03-06T00:47:54.263Z,85.82
2023-03-06T00:50:20.689Z,86.03
2023-03-06T00:52:47.412Z,87.18
2023-03-06T00:55:13.828Z,87.18
2023-03-06T00:57:40.265Z,87.23
2023-03-06T01:00:07.251Z,86.89
2023-03-06T01:02:33.721Z,85.90
2023-03-06T01:05:00.136Z,85.68
2023-03-06T01:07:27.798Z,86.39
2023-03-06T01:09:54.247Z,86.95
2023-03-06T01:12:23.279Z,87.46
2023-03-06T01:14:49.979Z,87.60
2023-03-06T01:17:16.425Z,87.32
2023-03-06T01:19:42.944Z,87.13
2023-03-06T01:22:09.333Z,86.78
2023-03-06T01:24:35.766Z,87.26
2023-03-06T01:27:02.173Z,87.68
2023-03-06T01:29:28.802Z,85.80
2023-03-06T01:31:55.245Z,86.93
2023-03-06T01:34:21.651Z,86.61
2023-03-06T01:36:48.288Z,86.23
2023-03-06T01:39:14.687Z,86.85
2023-03-06T01:41:41.110Z,86.81
2023-03-06T01:44:07.622Z,86.49
2023-03-06T01:46:42.274Z,85.79
2023-03-06T01:49:22.122Z,85.77
2023-03-06T01:52:17.165Z,86.11
2023-03-06T01:54:52.697Z,87.03
2023-03-06T01:57:20.686Z,86.66
2023-03-06T01:59:52.985Z,85.64
2023-03-06T02:02:20.722Z,85.80
2023-03-06T02:04:47.874Z,85.52
2023-03-06T02:07:18.948Z,86.38
2023-03-06T02:09:45.679Z,86.25
2023-03-06T02:12:17.482Z,85.41
2023-03-06T02:14:45.023Z,85.66
2023-03-06T02:17:13.265Z,86.24
2023-03-06T02:20:13.400Z,86.39
2023-03-06T02:22:48.780Z,86.64
2023-03-06T02:25:38.538Z,86.98
2023-03-06T02:28:07.227Z,86.48
2023-03-06T02:30:34.413Z,86.53
2023-03-06T02:33:01.262Z,87.02
2023-03-06T02:35:35.059Z,86.60
2023-03-06T02:38:14.180Z,86.55
2023-03-06T02:40:43.427Z,86.67
2023-03-06T02:43:11.090Z,87.01
2023-03-06T02:45:49.187Z,87.23
2023-03-06T02:48:18.127Z,87.39
2023-03-06T02:50:44.929Z,87.29
2023-03-06T02:53:13.733Z,86.75
2023-03-06T02:55:40.300Z,87.71
2023-03-06T02:58:06.858Z,87.52
2023-03-06T03:00:34.074Z,87.50
2023-03-06T03:03:01.089Z,88.73
2023-03-06T03:05:27.574Z,88.14
2023-03-06T03:07:53.982Z,88.94
2023-03-06T03:10:20.744Z,89.62
2023-03-06T03:12:47.227Z,89.43
2023-03-06T03:15:13.806Z,89.36
2023-03-06T03:17:41.085Z,89.12
2023-03-06T03:20:12.244Z,88.44
2023-03-06T03:22:38.955Z,87.92
2023-03-06T03:25:05.970Z,87.56
2023-03-06T03:27:32.409Z,87.44
2023-03-06T03:30:00.198Z,87.48
2023-03-06T03:32:26.882Z,87.61
2023-03-06T03:34:55.883Z,87.44
2023-03-06T03:37:23.399Z,87.94
2023-03-06T03:39:49.785Z,88.21
2023-03-06T03:42:16.185Z,89.23
2023-03-06T03:44:45.789Z,88.24
2023-03-06T03:47:12.160Z,88.43
2023-03-06T03:49:38.974Z,88.47
2023-03-06T03:52:05.588Z,88.49
2023-03-06T03:54:31.973Z,89.08
2023-03-06T03:56:58.321Z,88.61
2023-03-06T03:59:24.914Z,89.51
2023-03-06T04:01:52.197Z,88.20
2023-03-06T04:04:18.648Z,88.06
2023-03-06T04:06:45.069Z,88.80
2023-03-06T04:09:11.457Z,88.86
2023-03-06T04:11:38.510Z,88.93
2023-03-06T04:14:05.065Z,88.15
2023-03-06T04:16:31.499Z,88.18
2023-03-06T04:18:57.897Z,87.87
2023-03-06T04:21:26.889Z,88.81
2023-03-06T04:23:53.264Z,87.78
2023-03-06T04:26:19.661Z,88.28
2023-03-06T04:28:46.040Z,88.29
2023-03-06T04:31:13.288Z,89.99
2023-03-06T04:33:39.886Z,89.08
2023-03-06T04:36:06.535Z,88.85
2023-03-06T04:38:33.018Z,89.10
2023-03-06T04:40:59.455Z,88.92
2023-03-06T04:43:26.255Z,89.42
2023-03-06T04:45:52.698Z,89.84
2023-03-06T04:48:19.416Z,90.96
2023-03-06T04:50:45.961Z,90.27
2023-03-06T04:53:13.398Z,90.08
2023-03-06T04:55:39.834Z,89.84
2023-03-06T04:58:06.289Z,89.03
2023-03-06T05:00:32.749Z,89.99
2023-03-06T05:03:00.768Z,90.06
2023-03-06T05:05:28.089Z,89.68
2023-03-06T05:07:54.705Z,89.79
2023-03-06T05:10:21.510Z,89.46
2023-03-06T05:12:47.981Z,89.70
2023-03-06T05:15:16.519Z,90.54
2023-03-06T05:17:43.688Z,91.23
2023-03-06T05:20:11.802Z,91.47
2023-03-06T05:22:38.537Z,90.55
2023-03-06T05:25:05.961Z,91.60
2023-03-06T05:27:32.451Z,91.56
2023-03-06T05:29:59.075Z,90.81
2023-03-06T05:32:25.583Z,90.58
2023-03-06T05:34:54.340Z,90.45
2023-03-06T05:37:22.877Z,91.75
2023-03-06T05:39:50.334Z,91.53
2023-03-06T05:42:16.774Z,91.20
2023-03-06T05:44:43.174Z,90.85
2023-03-06T05:47:09.709Z,91.06
2023-03-06T05:49:36.906Z,91.04
2023-03-06T05:52:07.696Z,90.79
2023-03-06T05:54:36.307Z,90.97
2023-03-06T05:57:04.858Z,91.82
2023-03-06T05:59:33.020Z,91.21
2023-03-06T06:02:01.331Z,91.98
2023-03-06T06:04:27.986Z,92.82
2023-03-06T06:06:57.918Z,92.56
2023-03-06T06:09:25.106Z,92.76
2023-03-06T06:11:58.145Z,91.62
2023-03-06T06:14:24.851Z,91.79
2023-03-06T06:16:51.594Z,91.90
2023-03-06T06:19:20.890Z,91.34
2023-03-06T06:21:52.442Z,91.90
2023-03-06T06:24:21.262Z,91.34
2023-03-06T06:26:50.305Z,91.95
2023-03-06T06:29:16.687Z,92.29
2023-03-06T06:31:43.312Z,91.76
2023-03-06T06:34:12.198Z,91.49
2023-03-06T06:36:38.736Z,91.25
2023-03-06T06:39:06.257Z,91.32
2023-03-06T06:41:53.112Z,91.59
2023-03-06T06:44:20.372Z,91.62
2023-03-06T06:49:34.250Z,91.73
2023-03-06T06:52:00.951Z,91.73
2023-03-06T06:54:27.398Z,90.91
2023-03-06T06:56:54.393Z,91.11
2023-03-06T06:59:23.518Z,90.93
2023-03-06T07:01:51.364Z,90.25
2023-03-06T07:04:19.156Z,90.17
2023-03-06T07:06:48.735Z,90.50
2023-03-06T07:09:15.227Z,89.89
2023-03-06T07:11:41.810Z,90.49
2023-03-06T07:14:08.808Z,90.34
2023-03-06T07:16:35.563Z,90.26
2023-03-06T07:19:01.979Z,89.67
2023-03-06T07:21:28.395Z,89.48
2023-03-06T07:23:57.185Z,89.29
2023-03-06T07:26:24.150Z,89.35
2023-03-06T07:28:53.471Z,89.78
2023-03-06T07:31:22.375Z,89.89
2023-03-06T07:33:49.161Z,89.33
2023-03-06T07:36:15.745Z,89.65
2023-03-06T07:38:44.905Z,89.88
2023-03-06T07:41:13.594Z,89.80
2023-03-06T07:43:41.263Z,89.87
2023-03-06T07:46:08.853Z,89.42
2023-03-06T07:48:36.940Z,89.61
2023-03-06T07:51:06.323Z,88.53
2023-03-06T07:53:34.119Z,88.84
2023-03-06T07:56:00.771Z,87.89
2023-03-06T07:58:27.425Z,87.99
2023-03-06T08:00:53.822Z,88.56
2023-03-06T08:03:20.250Z,88.51
2023-03-06T08:05:46.654Z,88.20
2023-03-06T08:08:15.978Z,88.01
2023-03-06T08:10:48.957Z,87.28
2023-03-06T08:13:15.320Z,86.70
2023-03-06T08:15:47.519Z,87.23
2023-03-06T08:18:14.035Z,86.36
2023-03-06T08:20:40.406Z,84.54
2023-03-06T08:23:06.748Z,84.91
2023-03-06T08:25:33.116Z,83.87
2023-03-06T08:27:59.475Z,82.20
2023-03-06T08:30:25.890Z,79.77
2023-03-06T08:32:52.446Z,79.53
2023-03-06T08:35:18.854Z,79.03
2023-03-06T08:37:45.299Z,78.75
2023-03-06T08:40:12.658Z,77.90
2023-03-06T08:42:39.208Z,77.32
2023-03-06T08:45:07.053Z,77.04
2023-03-06T08:47:34.966Z,75.97
2023-03-06T08:50:01.425Z,77.31
2023-03-06T08:52:27.864Z,77.73
2023-03-06T08:54:54.335Z,77.47
2023-03-06T08:57:20.775Z,76.39
2023-03-06T08:59:47.229Z,77.46
2023-03-06T09:02:15.291Z,77.70
2023-03-06T09:04:41.806Z,77.47
2023-03-06T09:07:08.245Z,77.08
2023-03-06T09:09:34.653Z,76.61
2023-03-06T09:12:01.101Z,76.90
2023-03-06T09:14:27.586Z,78.11
2023-03-06T09:16:54.101Z,77.68
2023-03-06T09:19:20.926Z,77.67
2023-03-06T09:21:48.459Z,77.25
2023-03-06T09:24:15.045Z,76.87
2023-03-06T09:26:46.301Z,77.81
2023-03-06T09:29:16.209Z,78.95
2023-03-06T09:31:45.552Z,77.97
2023-03-06T09:34:12.060Z,77.21
2023-03-06T09:36:55.045Z,77.61
2023-03-06T09:39:22.982Z,78.22
2023-03-06T09:41:50.697Z,78.70
2023-03-06T09:44:21.432Z,78.96
2023-03-06T09:47:00.162Z,79.85
2023-03-06T09:49:48.020Z,80.82
2023-03-06T09:52:31.484Z,80.76
2023-03-06T09:55:11.728Z,81.24
2023-03-06T09:57:52.401Z,80.74
2023-03-06T10:00:33.585Z,81.73
2023-03-06T10:03:18.004Z,80.94
2023-03-06T10:05:50.124Z,80.98
2023-03-06T10:08:23.030Z,81.39
2023-03-06T10:10:57.580Z,83.16
2023-03-06T10:13:45.216Z,83.66
2023-03-06T10:16:20.682Z,82.81
2023-03-06T10:18:47.215Z,83.43
2023-03-06T10:21:25.575Z,83.45
2023-03-06T10:23:55.034Z,82.66
2023-03-06T10:26:30.356Z,83.13
2023-03-06T10:29:12.074Z,83.36
2023-03-06T10:31:49.258Z,83.57
2023-03-06T10:34:24.322Z,83.33
2023-03-06T10:36:50.894Z,82.09
2023-03-06T10:39:20.976Z,82.59
2023-03-06T10:41:49.218Z,82.76
2023-03-06T10:44:15.590Z,82.83
2023-03-06T10:46:45.273Z,82.28
2023-03-06T10:49:14.728Z,82.04
2023-03-06T10:51:56.824Z,81.77
2023-03-06T10:54:23.283Z,79.98
2023-03-06T10:56:49.657Z,79.22
2023-03-06T10:59:18.912Z,80.99
2023-03-06T11:01:48.488Z,80.38
2023-03-06T11:04:26.602Z,80.47
2023-03-06T11:07:09.124Z,79.39
2023-03-06T11:09:36.152Z,79.75
2023-03-06T11:12:24.061Z,78.66
2023-03-06T11:15:18.119Z,78.46
2023-03-06T11:17:49.189Z,77.42
2023-03-06T11:20:21.461Z,76.14
2023-03-06T11:22:56.034Z,75.64
2023-03-06T11:25:28.972Z,75.19
2023-03-06T11:28:00.322Z,74.20
2023-03-06T11:30:37.413Z,73.56
2023-03-06T11:33:14.567Z,74.00
2023-03-06T11:35:56.263Z,71.13
2023-03-06T11:38:27.281Z,72.10
2023-03-06T11:40:58.772Z,69.98
2023-03-06T11:43:48.562Z,71.29
2023-03-06T11:46:26.323Z,70.50
2023-03-06T11:49:17.276Z,70.69
2023-03-06T11:51:51.621Z,70.17
2023-03-06T11:54:18.014Z,70.21
2023-03-06T11:57:04.440Z,70.41
2023-03-06T12:00:02.373Z,69.11
2023-03-06T12:02:42.966Z,69.51
2023-03-06T12:05:23.102Z,68.70
2023-03-06T12:08:12.652Z,68.88
2023-03-06T12:10:51.876Z,67.65
2023-03-06T12:13:49.914Z,67.43
2023-03-06T12:16:40.708Z,67.66
2023-03-06T12:19:24.327Z,68.78
2023-03-06T12:22:08.124Z,69.34
2023-03-06T12:24:43.372Z,70.18
2023-03-06T12:27:19.893Z,72.57
2023-03-06T12:30:08.991Z,73.87
2023-03-06T12:32:52.105Z,72.13
2023-03-06T12:35:33.446Z,71.62
2023-03-06T12:38:28.860Z,70.45
2023-03-06T12:41:22.831Z,70.61
2023-03-06T12:43:49.125Z,69.29
2023-03-06T12:46:18.843Z,69.73
2023-03-06T12:48:53.070Z,70.32
2023-03-06T12:51:21.405Z,70.37
2023-03-06T12:53:49.778Z,70.80
2023-03-06T12:56:18.377Z,71.89
2023-03-06T12:59:02.717Z,68.92
2023-03-06T13:01:47.370Z,70.79
2023-03-06T13:04:49.323Z,69.59
2023-03-06T13:07:27.929Z,67.92
2023-03-06T13:10:11.573Z,68.56
2023-03-06T13:12:55.953Z,69.40
2023-03-06T13:15:37.683Z,68.83
2023-03-06T13:18:22.214Z,69.30
2023-03-06T13:20:55.606Z,70.74
2023-03-06T13:23:35.188Z,70.58
2023-03-06T13:26:26.628Z,69.97
2023-03-06T13:28:54.726Z,71.16
2023-03-06T13:31:33.512Z,71.72
2023-03-06T13:34:05.334Z,71.22
2023-03-06T13:36:33.722Z,69.35
2023-03-06T13:39:01.564Z,69.25
2023-03-06T13:41:30.963Z,69.40
2023-03-06T13:44:25.314Z,69.12
2023-03-06T13:47:01.770Z,69.51
2023-03-06T13:49:29.283Z,70.09
2023-03-06T13:51:55.622Z,69.65
2023-03-06T13:54:33.668Z,70.50
2023-03-06T13:57:26.048Z,72.86
2023-03-06T14:00:12.086Z,73.99
2023-03-06T14:02:58.707Z,73.30
2023-03-06T14:05:58.949Z,75.99
2023-03-06T14:08:31.269Z,74.44
2023-03-06T14:11:04.779Z,72.97
2023-03-06T14:13:47.843Z,73.86
2023-03-06T14:16:21.171Z,73.04
2023-03-06T14:18:50.478Z,72.85
2023-03-06T14:21:30.721Z,72.52
2023-03-06T14:24:00.638Z,71.69
2023-03-06T14:26:31.758Z,72.00
2023-03-06T14:29:00.116Z,72.76
2023-03-06T14:31:36.364Z,75.91
2023-03-06T14:34:05.507Z,78.14
2023-03-06T14:36:36.689Z,79.76
2023-03-06T14:39:08.848Z,82.54
2023-03-06T14:41:36.580Z,84.06
2023-03-06T14:44:17.707Z,86.12
2023-03-06T14:46:46.379Z,85.82
2023-03-06T14:49:18.166Z,87.56
2023-03-06T14:52:00.553Z,85.10
2023-03-06T14:54:31.325Z,84.92
2023-03-06T14:57:13.540Z,85.56
2023-03-06T14:59:54.426Z,87.88
2023-03-06T15:02:28.241Z,88.35
2023-03-06T15:05:00.275Z,88.58
2023-03-06T15:07:30.593Z,88.31
2023-03-06T15:09:58.530Z,89.74
2023-03-06T15:12:29.685Z,90.02
2023-03-06T15:15:19.358Z,90.48
2023-03-06T15:17:47.617Z,90.72
2023-03-06T15:20:43.492Z,89.91
2023-03-06T15:23:19.128Z,90.71
2023-03-06T15:25:54.958Z,91.28
2023-03-06T15:28:30.380Z,91.14
2023-03-06T15:31:21.666Z,91.87
2023-03-06T15:34:06.401Z,91.26
2023-03-06T15:36:35.108Z,89.42
2023-03-06T15:39:01.713Z,91.25
2023-03-06T15:41:47.755Z,92.87
2023-03-06T15:44:15.467Z,94.03
2023-03-06T15:46:44.603Z,94.73
2023-03-06T15:49:19.653Z,93.98
2023-03-06T15:51:46.140Z,92.96
2023-03-06T15:54:13.006Z,95.95
2023-03-06T15:57:05.244Z,97.52
2023-03-06T15:59:50.870Z,98.58
2023-03-06T16:02:20.348Z,96.91
2023-03-06T16:04:53.981Z,99.39
2023-03-06T16:07:40.030Z,100.00
2023-03-06T16:10:15.800Z,100.00
2023-03-06T16:12:52.047Z,100.00
2023-03-06T16:15:34.630Z,100.00
2023-03-06T16:18:01.224Z,100.00
2023-03-06T16:20:41.651Z,100.00
2023-03-06T16:23:17.202Z,100.00
2023-03-06T16:25:48.573Z,100.00
2023-03-06T16:28:16.499Z,100.00
2023-03-06T16:30:55.166Z,100.00
2023-03-06T16:33:25.075Z,100.00
2023-03-06T16:36:03.953Z,100.00
2023-03-06T16:38:47.291Z,100.00
2023-03-06T16:41:14.769Z,100.00
2023-03-06T16:43:41.200Z,100.00
2023-03-06T16:46:18.266Z,100.00
2023-03-06T16:48:58.475Z,100.00
2023-03-06T16:54:14.578Z,100.00
2023-03-06T16:56:41.621Z,100.00
2023-03-06T16:59:08.255Z,100.00
2023-03-06T17:01:34.968Z,100.00
2023-03-06T17:04:01.604Z,100.00
2023-03-06T17:06:30.178Z,100.00
2023-03-06T17:08:58.050Z,100.00
2023-03-06T17:11:25.022Z,100.00
2023-03-06T17:13:51.519Z,100.00
2023-03-06T17:16:18.026Z,100.00
2023-03-06T17:19:08.845Z,100.00
2023-03-06T17:21:45.967Z,100.00
2023-03-06T17:24:38.006Z,100.00
2023-03-06T17:27:10.632Z,100.00
2023-03-06T17:29:51.824Z,100.00
2023-03-06T17:35:20.419Z,100.00
2023-03-06T17:40:58.633Z,100.00
2023-03-06T17:43:59.255Z,100.00
2023-03-06T17:52:48.694Z,100.00
2023-03-06T18:04:37.727Z,100.00
2023-03-06T18:14:14.327Z,99.43
2023-03-06T18:20:36.860Z,100.00
2023-03-06T18:23:19.924Z,100.00
2023-03-06T18:26:21.319Z,99.97
2023-03-06T18:32:40.860Z,99.59
2023-03-06T18:38:11.196Z,100.00
2023-03-06T18:53:31.120Z,96.23
2023-03-06T18:56:06.682Z,95.50
2023-03-06T18:58:49.913Z,96.07
2023-03-06T19:01:43.873Z,96.09
2023-03-06T19:04:48.498Z,96.37
2023-03-06T19:07:30.972Z,95.83
2023-03-06T19:10:03.215Z,95.66
2023-03-06T19:15:33.673Z,96.42
2023-03-06T19:18:26.966Z,95.23
2023-03-06T19:21:37.162Z,96.11
2023-03-06T19:24:26.412Z,95.68
2023-03-06T19:27:08.340Z,94.72
2023-03-06T19:29:37.960Z,93.76
2023-03-06T19:32:17.727Z,94.57
2023-03-06T19:34:47.649Z,94.55
2023-03-06T19:37:23.396Z,95.78
2023-03-06T19:40:03.369Z,94.81
2023-03-06T19:42:41.772Z,95.83
2023-03-06T19:45:18.051Z,95.54
2023-03-06T19:47:46.776Z,94.17
2023-03-06T19:50:25.363Z,94.56
2023-03-06T19:52:59.918Z,96.13
2023-03-06T19:55:36.697Z,95.98
2023-03-06T19:58:22.283Z,95.45
2023-03-06T20:00:56.666Z,94.90
2023-03-06T20:06:31.842Z,94.69
2023-03-06T20:09:01.565Z,95.54
2023-03-06T20:14:34.343Z,94.85
2023-03-06T20:17:12.799Z,95.46
2023-03-06T20:19:53.262Z,94.83
2023-03-06T20:25:13.048Z,95.02
2023-03-06T20:27:56.210Z,94.18
2023-03-06T20:30:37.861Z,94.76
2023-03-06T20:33:35.485Z,94.78
2023-03-06T20:36:27.005Z,94.82
2023-03-06T20:39:05.767Z,96.24
2023-03-06T20:42:16.273Z,96.33
2023-03-06T20:44:56.640Z,95.63
2023-03-06T20:47:27.481Z,95.57
2023-03-06T20:50:06.305Z,96.15
2023-03-06T20:52:56.026Z,96.09
2023-03-06T20:55:29.349Z,96.40
2023-03-06T20:58:12.232Z,96.92
2023-03-06T21:00:54.653Z,98.04
2023-03-06T21:03:41.733Z,98.62
2023-03-06T21:06:23.175Z,98.32
2023-03-06T21:09:19.512Z,98.70
2023-03-06T21:12:06.356Z,98.66
2023-03-06T21:17:34.145Z,98.07
2023-03-06T21:20:17.277Z,98.22
2023-03-06T21:23:09.544Z,98.52
2023-03-06T21:28:39.164Z,98.25
2023-03-06T21:37:48.340Z,96.94
2023-03-06T21:40:14.918Z,95.88
2023-03-06T21:42:41.774Z,95.90
2023-03-06T21:45:14.457Z,95.44
2023-03-06T21:47:41.089Z,95.41
2023-03-06T21:50:12.121Z,95.76
2023-03-06T21:52:38.811Z,95.74
2023-03-06T21:55:06.048Z,94.57
2023-03-06T21:57:32.666Z,93.26
2023-03-06T22:00:08.577Z,93.45
2023-03-06T22:03:09.976Z,92.83
2023-03-06T22:06:02.826Z,91.76
2023-03-06T22:08:41.188Z,91.12
2023-03-06T22:17:23.636Z,88.59
2023-03-06T22:23:00.818Z,89.26
2023-03-06T22:25:37.076Z,88.36
2023-03-06T22:28:25.891Z,87.62
2023-03-06T22:33:48.880Z,88.17
2023-03-06T22:39:37.188Z,86.44
2023-03-06T22:42:24.671Z,85.61
2023-03-06T22:45:24.712Z,86.78
2023-03-06T22:50:59.098Z,85.42
2023-03-06T22:53:48.141Z,84.65
2023-03-06T22:56:46.353Z,85.11
2023-03-06T22:59:18.225Z,85.08
2023-03-06T23:01:44.894Z,84.17
2023-03-06T23:04:17.176Z,85.66
2023-03-06T23:06:50.185Z,84.70
2023-03-06T23:09:25.514Z,84.99
2023-03-06T23:11:54.378Z,85.25
2023-03-06T23:14:21.262Z,85.71
2023-03-06T23:16:48.839Z,86.12
2023-03-06T23:19:19.416Z,86.48
2023-03-06T23:21:46.340Z,85.53
2023-03-06T23:24:20.340Z,83.96
2023-03-06T23:26:50.131Z,84.04
2023-03-06T23:29:22.502Z,84.94
2023-03-06T23:32:02.789Z,84.51
2023-03-06T23:34:37.764Z,85.00
2023-03-06T23:37:10.564Z,84.91
2023-03-06T23:39:44.758Z,84.52
2023-03-06T23:42:22.035Z,84.94
2023-03-06T23:44:55.832Z,85.70
2023-03-06T23:47:48.604Z,85.05
2023-03-06T23:50:21.316Z,85.58
2023-03-06T23:52:50.702Z,85.56
2023-03-06T23:55:26.167Z,85.17
2023-03-06T23:58:50.850Z,84.95
